sensor_id;sensor_type;location;lat;lon;timestamp;P1;durP1;ratioP1;P2;durP2;ratioP2
10659;SDS011;5378;53.206;13.316;2023-10-13T00:01:43;15.33;;;2.13;;
10659;SDS011;5378;53.206;13.316;2023-10-13T00:04:32;1.83;;;1.30;;
10659;SDS011;5378;53.206;13.316;2023-10-13T00:07:41;4.07;;;1.93;;
10659;SDS011;5378;53.206;13.316;2023-10-13T00:10:47;5.13;;;1.50;;
10659;SDS011;5378;53.206;13.316;2023-10-13T00:13:34;7.17;;;1.60;;
10659;SDS011;5378;53.206;13.316;2023-10-13T00:16:28;3.93;;;2.00;;
10659;SDS011;5378;53.206;13.316;2023-10-13T00:19:16;9.10;;;2.20;;
10659;SDS011;5378;53.206;13.316;2023-10-13T00:22:04;17.13;;;2.93;;
10659;SDS011;5378;53.206;13.316;2023-10-13T00:24:57;9.40;;;2.43;;
10659;SDS011;5378;53.206;13.316;2023-10-13T00:27:44;5.60;;;2.20;;
10659;SDS011;5378;53.206;13.316;2023-10-13T00:30:37;10.10;;;2.37;;
10659;SDS011;5378;53.206;13.316;2023-10-13T00:33:25;12.23;;;2.70;;
10659;SDS011;5378;53.206;13.316;2023-10-13T00:36:12;6.70;;;2.80;;
10659;SDS011;5378;53.206;13.316;2023-10-13T00:39:04;14.33;;;2.50;;
10659;SDS011;5378;53.206;13.316;2023-10-13T00:41:54;4.17;;;2.47;;
10659;SDS011;5378;53.206;13.316;2023-10-13T00:44:44;6.23;;;2.90;;
10659;SDS011;5378;53.206;13.316;2023-10-13T00:47:34;7.20;;;3.00;;
10659;SDS011;5378;53.206;13.316;2023-10-13T00:50:33;6.90;;;3.17;;
10659;SDS011;5378;53.206;13.316;2023-10-13T00:53:22;5.73;;;3.43;;
10659;SDS011;5378;53.206;13.316;2023-10-13T00:56:10;7.63;;;3.03;;
10659;SDS011;5378;53.206;13.316;2023-10-13T00:59:05;17.80;;;2.60;;
10659;SDS011;5378;53.206;13.316;2023-10-13T01:01:55;18.83;;;3.20;;
10659;SDS011;5378;53.206;13.316;2023-10-13T01:04:42;11.50;;;2.53;;
10659;SDS011;5378;53.206;13.316;2023-10-13T01:07:32;7.27;;;3.20;;
10659;SDS011;5378;53.206;13.316;2023-10-13T01:10:22;7.50;;;3.00;;
10659;SDS011;5378;53.206;13.316;2023-10-13T01:13:12;8.60;;;2.63;;
10659;SDS011;5378;53.206;13.316;2023-10-13T01:16:02;6.33;;;3.07;;
10659;SDS011;5378;53.206;13.316;2023-10-13T01:18:52;10.20;;;3.60;;
10659;SDS011;5378;53.206;13.316;2023-10-13T01:21:38;6.87;;;2.80;;
10659;SDS011;5378;53.206;13.316;2023-10-13T01:24:28;5.23;;;2.37;;
10659;SDS011;5378;53.206;13.316;2023-10-13T01:27:16;6.10;;;2.97;;
10659;SDS011;5378;53.206;13.316;2023-10-13T01:30:05;17.23;;;2.50;;
10659;SDS011;5378;53.206;13.316;2023-10-13T01:32:55;9.37;;;3.27;;
10659;SDS011;5378;53.206;13.316;2023-10-13T01:35:46;11.10;;;3.20;;
10659;SDS011;5378;53.206;13.316;2023-10-13T01:38:33;11.83;;;3.13;;
10659;SDS011;5378;53.206;13.316;2023-10-13T01:41:22;17.07;;;4.00;;
10659;SDS011;5378;53.206;13.316;2023-10-13T01:44:10;29.00;;;3.03;;
10659;SDS011;5378;53.206;13.316;2023-10-13T01:46:58;7.53;;;3.53;;
10659;SDS011;5378;53.206;13.316;2023-10-13T01:49:45;7.93;;;2.97;;
10659;SDS011;5378;53.206;13.316;2023-10-13T01:52:36;14.60;;;2.90;;
10659;SDS011;5378;53.206;13.316;2023-10-13T01:55:22;10.37;;;2.60;;
10659;SDS011;5378;53.206;13.316;2023-10-13T01:58:12;10.00;;;3.23;;
10659;SDS011;5378;53.206;13.316;2023-10-13T02:01:00;10.27;;;3.13;;
10659;SDS011;5378;53.206;13.316;2023-10-13T02:03:47;12.20;;;3.60;;
10659;SDS011;5378;53.206;13.316;2023-10-13T02:06:35;6.40;;;2.70;;
10659;SDS011;5378;53.206;13.316;2023-10-13T02:09:22;9.20;;;3.00;;
10659;SDS011;5378;53.206;13.316;2023-10-13T02:12:12;12.23;;;3.17;;
10659;SDS011;5378;53.206;13.316;2023-10-13T02:15:02;7.50;;;2.43;;
10659;SDS011;5378;53.206;13.316;2023-10-13T02:17:50;8.97;;;3.33;;
10659;SDS011;5378;53.206;13.316;2023-10-13T02:20:37;13.90;;;2.90;;
10659;SDS011;5378;53.206;13.316;2023-10-13T02:23:28;3.57;;;2.63;;
10659;SDS011;5378;53.206;13.316;2023-10-13T02:26:14;8.97;;;2.60;;
10659;SDS011;5378;53.206;13.316;2023-10-13T02:29:15;13.53;;;3.10;;
10659;SDS011;5378;53.206;13.316;2023-10-13T02:32:05;7.73;;;2.60;;
10659;SDS011;5378;53.206;13.316;2023-10-13T02:34:58;6.10;;;3.30;;
10659;SDS011;5378;53.206;13.316;2023-10-13T02:37:51;10.57;;;2.80;;
10659;SDS011;5378;53.206;13.316;2023-10-13T02:40:42;5.23;;;3.30;;
10659;SDS011;5378;53.206;13.316;2023-10-13T02:43:29;7.60;;;3.10;;
10659;SDS011;5378;53.206;13.316;2023-10-13T02:46:19;6.37;;;2.47;;
10659;SDS011;5378;53.206;13.316;2023-10-13T02:49:09;20.07;;;3.77;;
10659;SDS011;5378;53.206;13.316;2023-10-13T02:51:56;7.93;;;2.80;;
10659;SDS011;5378;53.206;13.316;2023-10-13T02:54:50;7.00;;;3.20;;
10659;SDS011;5378;53.206;13.316;2023-10-13T02:57:36;7.23;;;3.30;;
10659;SDS011;5378;53.206;13.316;2023-10-13T03:00:26;9.83;;;3.23;;
10659;SDS011;5378;53.206;13.316;2023-10-13T03:03:18;12.27;;;3.20;;
10659;SDS011;5378;53.206;13.316;2023-10-13T03:06:06;12.33;;;3.27;;
10659;SDS011;5378;53.206;13.316;2023-10-13T03:08:52;10.40;;;3.00;;
10659;SDS011;5378;53.206;13.316;2023-10-13T03:11:40;7.67;;;2.70;;
10659;SDS011;5378;53.206;13.316;2023-10-13T03:14:28;18.67;;;4.23;;
10659;SDS011;5378;53.206;13.316;2023-10-13T03:17:16;8.23;;;3.00;;
10659;SDS011;5378;53.206;13.316;2023-10-13T03:20:08;10.17;;;3.63;;
10659;SDS011;5378;53.206;13.316;2023-10-13T03:22:58;9.43;;;3.77;;
10659;SDS011;5378;53.206;13.316;2023-10-13T03:25:44;8.60;;;3.43;;
10659;SDS011;5378;53.206;13.316;2023-10-13T03:28:38;18.07;;;3.57;;
10659;SDS011;5378;53.206;13.316;2023-10-13T03:31:26;13.40;;;4.07;;
10659;SDS011;5378;53.206;13.316;2023-10-13T03:34:13;10.40;;;4.10;;
10659;SDS011;5378;53.206;13.316;2023-10-13T03:37:04;18.00;;;4.80;;
10659;SDS011;5378;53.206;13.316;2023-10-13T03:39:59;13.30;;;5.47;;
10659;SDS011;5378;53.206;13.316;2023-10-13T03:42:52;11.87;;;4.50;;
10659;SDS011;5378;53.206;13.316;2023-10-13T03:45:50;18.80;;;5.63;;
10659;SDS011;5378;53.206;13.316;2023-10-13T03:48:46;21.73;;;5.33;;
10659;SDS011;5378;53.206;13.316;2023-10-13T03:51:39;14.73;;;4.90;;
10659;SDS011;5378;53.206;13.316;2023-10-13T03:54:26;12.47;;;5.03;;
10659;SDS011;5378;53.206;13.316;2023-10-13T03:57:17;13.17;;;5.30;;
10659;SDS011;5378;53.206;13.316;2023-10-13T04:00:05;14.70;;;4.97;;
10659;SDS011;5378;53.206;13.316;2023-10-13T04:02:57;15.73;;;6.83;;
10659;SDS011;5378;53.206;13.316;2023-10-13T04:05:54;20.00;;;6.93;;
10659;SDS011;5378;53.206;13.316;2023-10-13T04:08:51;16.70;;;5.37;;
10659;SDS011;5378;53.206;13.316;2023-10-13T04:11:53;15.77;;;6.30;;
10659;SDS011;5378;53.206;13.316;2023-10-13T04:14:55;29.73;;;6.57;;
10659;SDS011;5378;53.206;13.316;2023-10-13T04:17:56;18.33;;;7.07;;
10659;SDS011;5378;53.206;13.316;2023-10-13T04:20:44;20.80;;;6.37;;
10659;SDS011;5378;53.206;13.316;2023-10-13T04:23:32;21.83;;;7.43;;
10659;SDS011;5378;53.206;13.316;2023-10-13T04:26:39;20.90;;;7.03;;
10659;SDS011;5378;53.206;13.316;2023-10-13T04:29:49;18.93;;;7.50;;
10659;SDS011;5378;53.206;13.316;2023-10-13T04:32:42;22.00;;;7.60;;
10659;SDS011;5378;53.206;13.316;2023-10-13T04:35:51;28.50;;;7.87;;
10659;SDS011;5378;53.206;13.316;2023-10-13T04:38:44;35.80;;;8.03;;
10659;SDS011;5378;53.206;13.316;2023-10-13T04:41:46;16.00;;;7.67;;
10659;SDS011;5378;53.206;13.316;2023-10-13T04:44:43;16.90;;;7.50;;
10659;SDS011;5378;53.206;13.316;2023-10-13T04:47:38;20.70;;;6.70;;
10659;SDS011;5378;53.206;13.316;2023-10-13T04:50:30;20.43;;;7.90;;
10659;SDS011;5378;53.206;13.316;2023-10-13T04:53:27;19.33;;;8.50;;
10659;SDS011;5378;53.206;13.316;2023-10-13T04:56:15;18.10;;;7.10;;
10659;SDS011;5378;53.206;13.316;2023-10-13T04:59:17;30.33;;;8.77;;
10659;SDS011;5378;53.206;13.316;2023-10-13T05:02:21;20.40;;;8.37;;
10659;SDS011;5378;53.206;13.316;2023-10-13T05:05:24;22.77;;;6.07;;
10659;SDS011;5378;53.206;13.316;2023-10-13T05:08:31;23.50;;;7.77;;
10659;SDS011;5378;53.206;13.316;2023-10-13T05:12:00;23.33;;;8.37;;
10659;SDS011;5378;53.206;13.316;2023-10-13T05:15:24;32.80;;;8.67;;
10659;SDS011;5378;53.206;13.316;2023-10-13T05:18:29;16.70;;;8.00;;
10659;SDS011;5378;53.206;13.316;2023-10-13T05:21:33;20.23;;;8.87;;
10659;SDS011;5378;53.206;13.316;2023-10-13T05:24:40;24.37;;;9.10;;
10659;SDS011;5378;53.206;13.316;2023-10-13T05:27:44;23.23;;;9.40;;
10659;SDS011;5378;53.206;13.316;2023-10-13T05:31:10;21.93;;;9.00;;
10659;SDS011;5378;53.206;13.316;2023-10-13T05:34:14;21.17;;;8.70;;
10659;SDS011;5378;53.206;13.316;2023-10-13T05:37:38;24.93;;;9.90;;
10659;SDS011;5378;53.206;13.316;2023-10-13T05:41:03;25.43;;;9.30;;
10659;SDS011;5378;53.206;13.316;2023-10-13T05:44:10;23.10;;;9.07;;
10659;SDS011;5378;53.206;13.316;2023-10-13T05:47:14;23.17;;;9.57;;
10659;SDS011;5378;53.206;13.316;2023-10-13T05:50:19;16.00;;;8.00;;
10659;SDS011;5378;53.206;13.316;2023-10-13T05:53:35;18.60;;;8.50;;
10659;SDS011;5378;53.206;13.316;2023-10-13T05:56:41;28.70;;;8.30;;
10659;SDS011;5378;53.206;13.316;2023-10-13T05:59:46;15.70;;;7.33;;
10659;SDS011;5378;53.206;13.316;2023-10-13T06:02:51;26.00;;;9.53;;
10659;SDS011;5378;53.206;13.316;2023-10-13T06:05:55;22.90;;;8.03;;
10659;SDS011;5378;53.206;13.316;2023-10-13T06:09:00;23.00;;;8.47;;
10659;SDS011;5378;53.206;13.316;2023-10-13T06:12:06;22.20;;;9.67;;
10659;SDS011;5378;53.206;13.316;2023-10-13T06:15:10;20.10;;;7.60;;
10659;SDS011;5378;53.206;13.316;2023-10-13T06:18:15;21.80;;;9.20;;
10659;SDS011;5378;53.206;13.316;2023-10-13T06:21:19;22.83;;;8.47;;
10659;SDS011;5378;53.206;13.316;2023-10-13T06:24:24;15.20;;;7.13;;
10659;SDS011;5378;53.206;13.316;2023-10-13T06:27:30;18.10;;;7.23;;
10659;SDS011;5378;53.206;13.316;2023-10-13T06:30:34;17.60;;;7.87;;
10659;SDS011;5378;53.206;13.316;2023-10-13T06:33:22;16.13;;;7.33;;
10659;SDS011;5378;53.206;13.316;2023-10-13T06:36:14;20.53;;;8.97;;
10659;SDS011;5378;53.206;13.316;2023-10-13T06:39:03;19.77;;;7.73;;
10659;SDS011;5378;53.206;13.316;2023-10-13T06:42:04;16.70;;;7.47;;
10659;SDS011;5378;53.206;13.316;2023-10-13T06:44:52;18.13;;;9.17;;
10659;SDS011;5378;53.206;13.316;2023-10-13T06:47:40;19.10;;;8.90;;
10659;SDS011;5378;53.206;13.316;2023-10-13T06:50:28;19.23;;;7.77;;
10659;SDS011;5378;53.206;13.316;2023-10-13T06:53:24;17.57;;;8.90;;
10659;SDS011;5378;53.206;13.316;2023-10-13T06:56:13;32.93;;;9.77;;
10659;SDS011;5378;53.206;13.316;2023-10-13T06:59:03;17.00;;;8.70;;
10659;SDS011;5378;53.206;13.316;2023-10-13T07:01:53;22.43;;;8.40;;
10659;SDS011;5378;53.206;13.316;2023-10-13T07:04:50;16.63;;;8.80;;
10659;SDS011;5378;53.206;13.316;2023-10-13T07:07:42;20.77;;;9.93;;
10659;SDS011;5378;53.206;13.316;2023-10-13T07:10:30;18.40;;;8.73;;
10659;SDS011;5378;53.206;13.316;2023-10-13T07:13:22;17.73;;;8.27;;
10659;SDS011;5378;53.206;13.316;2023-10-13T07:16:13;22.20;;;10.27;;
10659;SDS011;5378;53.206;13.316;2023-10-13T07:19:15;22.77;;;10.90;;
10659;SDS011;5378;53.206;13.316;2023-10-13T07:22:02;29.67;;;11.20;;
10659;SDS011;5378;53.206;13.316;2023-10-13T07:25:04;25.43;;;10.90;;
10659;SDS011;5378;53.206;13.316;2023-10-13T07:27:53;25.83;;;10.90;;
10659;SDS011;5378;53.206;13.316;2023-10-13T07:30:42;26.73;;;10.43;;
10659;SDS011;5378;53.206;13.316;2023-10-13T07:33:35;26.67;;;12.90;;
10659;SDS011;5378;53.206;13.316;2023-10-13T07:36:23;28.90;;;12.33;;
10659;SDS011;5378;53.206;13.316;2023-10-13T07:39:13;24.63;;;12.03;;
10659;SDS011;5378;53.206;13.316;2023-10-13T07:42:07;28.10;;;12.37;;
10659;SDS011;5378;53.206;13.316;2023-10-13T07:45:00;20.23;;;11.43;;
10659;SDS011;5378;53.206;13.316;2023-10-13T07:47:50;21.43;;;12.10;;
10659;SDS011;5378;53.206;13.316;2023-10-13T07:50:38;21.37;;;10.83;;
10659;SDS011;5378;53.206;13.316;2023-10-13T07:53:26;20.47;;;10.90;;
10659;SDS011;5378;53.206;13.316;2023-10-13T07:56:20;20.83;;;10.40;;
10659;SDS011;5378;53.206;13.316;2023-10-13T07:59:07;18.20;;;9.80;;
10659;SDS011;5378;53.206;13.316;2023-10-13T08:01:55;25.77;;;10.80;;
10659;SDS011;5378;53.206;13.316;2023-10-13T08:04:56;22.30;;;10.50;;
10659;SDS011;5378;53.206;13.316;2023-10-13T08:07:44;18.33;;;9.53;;
10659;SDS011;5378;53.206;13.316;2023-10-13T08:10:36;21.23;;;10.20;;
10659;SDS011;5378;53.206;13.316;2023-10-13T08:13:23;19.30;;;9.57;;
10659;SDS011;5378;53.206;13.316;2023-10-13T08:16:12;19.20;;;10.50;;
10659;SDS011;5378;53.206;13.316;2023-10-13T08:19:06;25.07;;;10.23;;
10659;SDS011;5378;53.206;13.316;2023-10-13T08:21:57;18.20;;;9.40;;
10659;SDS011;5378;53.206;13.316;2023-10-13T08:24:45;17.20;;;10.10;;
10659;SDS011;5378;53.206;13.316;2023-10-13T08:27:45;22.07;;;10.23;;
10659;SDS011;5378;53.206;13.316;2023-10-13T08:30:35;20.80;;;10.43;;
10659;SDS011;5378;53.206;13.316;2023-10-13T08:33:37;20.43;;;9.73;;
10659;SDS011;5378;53.206;13.316;2023-10-13T08:36:25;14.13;;;8.80;;
10659;SDS011;5378;53.206;13.316;2023-10-13T08:39:16;18.03;;;8.60;;
10659;SDS011;5378;53.206;13.316;2023-10-13T08:42:29;15.27;;;8.90;;
10659;SDS011;5378;53.206;13.316;2023-10-13T08:45:28;21.03;;;8.90;;
10659;SDS011;5378;53.206;13.316;2023-10-13T08:48:30;18.70;;;9.77;;
10659;SDS011;5378;53.206;13.316;2023-10-13T08:51:20;19.80;;;8.23;;
10659;SDS011;5378;53.206;13.316;2023-10-13T08:54:28;19.40;;;10.53;;
10659;SDS011;5378;53.206;13.316;2023-10-13T08:57:20;17.20;;;9.37;;
10659;SDS011;5378;53.206;13.316;2023-10-13T09:00:18;14.93;;;8.43;;
10659;SDS011;5378;53.206;13.316;2023-10-13T09:03:36;21.10;;;8.13;;
10659;SDS011;5378;53.206;13.316;2023-10-13T09:06:26;14.60;;;8.10;;
10659;SDS011;5378;53.206;13.316;2023-10-13T09:09:13;16.47;;;7.30;;
10659;SDS011;5378;53.206;13.316;2023-10-13T09:12:12;14.03;;;8.30;;
10659;SDS011;5378;53.206;13.316;2023-10-13T09:15:00;18.00;;;9.13;;
10659;SDS011;5378;53.206;13.316;2023-10-13T09:17:51;16.17;;;9.07;;
10659;SDS011;5378;53.206;13.316;2023-10-13T09:20:40;17.80;;;8.20;;
10659;SDS011;5378;53.206;13.316;2023-10-13T09:23:31;16.33;;;7.87;;
10659;SDS011;5378;53.206;13.316;2023-10-13T09:26:33;12.97;;;8.70;;
10659;SDS011;5378;53.206;13.316;2023-10-13T09:29:21;15.67;;;7.93;;
10659;SDS011;5378;53.206;13.316;2023-10-13T09:32:10;12.40;;;7.30;;
10659;SDS011;5378;53.206;13.316;2023-10-13T09:34:59;13.10;;;7.50;;
10659;SDS011;5378;53.206;13.316;2023-10-13T09:37:52;14.30;;;7.27;;
10659;SDS011;5378;53.206;13.316;2023-10-13T09:40:42;16.70;;;7.67;;
10659;SDS011;5378;53.206;13.316;2023-10-13T09:43:35;16.03;;;8.00;;
10659;SDS011;5378;53.206;13.316;2023-10-13T09:46:23;15.57;;;8.03;;
10659;SDS011;5378;53.206;13.316;2023-10-13T09:49:14;11.20;;;7.57;;
10659;SDS011;5378;53.206;13.316;2023-10-13T09:52:30;10.60;;;7.43;;
10659;SDS011;5378;53.206;13.316;2023-10-13T09:55:22;15.67;;;7.80;;
10659;SDS011;5378;53.206;13.316;2023-10-13T09:58:15;16.00;;;8.10;;
10659;SDS011;5378;53.206;13.316;2023-10-13T10:01:05;16.10;;;7.37;;
10659;SDS011;5378;53.206;13.316;2023-10-13T10:03:54;13.90;;;7.70;;
10659;SDS011;5378;53.206;13.316;2023-10-13T10:06:55;13.07;;;6.80;;
10659;SDS011;5378;53.206;13.316;2023-10-13T10:09:41;15.40;;;8.50;;
10659;SDS011;5378;53.206;13.316;2023-10-13T10:12:32;17.80;;;7.67;;
10659;SDS011;5378;53.206;13.316;2023-10-13T10:15:28;16.33;;;8.20;;
10659;SDS011;5378;53.206;13.316;2023-10-13T10:18:21;13.70;;;7.30;;
10659;SDS011;5378;53.206;13.316;2023-10-13T10:21:10;19.47;;;8.80;;
10659;SDS011;5378;53.206;13.316;2023-10-13T10:24:00;18.77;;;7.97;;
10659;SDS011;5378;53.206;13.316;2023-10-13T10:26:51;19.77;;;7.57;;
10659;SDS011;5378;53.206;13.316;2023-10-13T10:29:40;15.67;;;9.00;;
10659;SDS011;5378;53.206;13.316;2023-10-13T10:32:38;13.53;;;8.30;;
10659;SDS011;5378;53.206;13.316;2023-10-13T10:35:27;11.30;;;6.23;;
10659;SDS011;5378;53.206;13.316;2023-10-13T10:38:17;9.50;;;6.67;;
10659;SDS011;5378;53.206;13.316;2023-10-13T10:41:24;9.23;;;6.70;;
10659;SDS011;5378;53.206;13.316;2023-10-13T10:44:15;11.83;;;6.60;;
10659;SDS011;5378;53.206;13.316;2023-10-13T10:47:13;13.73;;;7.03;;
10659;SDS011;5378;53.206;13.316;2023-10-13T10:50:05;42.53;;;7.60;;
10659;SDS011;5378;53.206;13.316;2023-10-13T10:53:04;13.33;;;6.33;;
10659;SDS011;5378;53.206;13.316;2023-10-13T10:55:54;11.80;;;7.23;;
10659;SDS011;5378;53.206;13.316;2023-10-13T10:58:53;7.87;;;6.03;;
10659;SDS011;5378;53.206;13.316;2023-10-13T11:01:43;10.80;;;6.03;;
10659;SDS011;5378;53.206;13.316;2023-10-13T11:04:35;12.40;;;6.90;;
10659;SDS011;5378;53.206;13.316;2023-10-13T11:07:26;14.30;;;6.07;;
10659;SDS011;5378;53.206;13.316;2023-10-13T11:10:15;10.87;;;6.50;;
10659;SDS011;5378;53.206;13.316;2023-10-13T11:13:12;12.10;;;6.87;;
10659;SDS011;5378;53.206;13.316;2023-10-13T11:16:08;10.83;;;6.63;;
10659;SDS011;5378;53.206;13.316;2023-10-13T11:19:00;21.93;;;6.87;;
10659;SDS011;5378;53.206;13.316;2023-10-13T11:21:49;11.93;;;7.70;;
10659;SDS011;5378;53.206;13.316;2023-10-13T11:24:39;12.23;;;7.47;;
10659;SDS011;5378;53.206;13.316;2023-10-13T11:27:28;13.50;;;7.47;;
10659;SDS011;5378;53.206;13.316;2023-10-13T11:30:30;10.60;;;7.00;;
10659;SDS011;5378;53.206;13.316;2023-10-13T11:33:27;10.93;;;7.47;;
10659;SDS011;5378;53.206;13.316;2023-10-13T11:36:15;10.67;;;6.07;;
10659;SDS011;5378;53.206;13.316;2023-10-13T11:39:09;12.10;;;6.47;;
10659;SDS011;5378;53.206;13.316;2023-10-13T11:42:03;12.43;;;6.03;;
10659;SDS011;5378;53.206;13.316;2023-10-13T11:44:56;15.30;;;9.10;;
10659;SDS011;5378;53.206;13.316;2023-10-13T11:48:02;11.50;;;6.83;;
10659;SDS011;5378;53.206;13.316;2023-10-13T11:50:57;12.97;;;7.13;;
10659;SDS011;5378;53.206;13.316;2023-10-13T11:53:44;14.63;;;6.37;;
10659;SDS011;5378;53.206;13.316;2023-10-13T11:56:34;11.00;;;6.17;;
10659;SDS011;5378;53.206;13.316;2023-10-13T11:59:24;9.50;;;5.03;;
10659;SDS011;5378;53.206;13.316;2023-10-13T12:02:13;10.30;;;5.50;;
10659;SDS011;5378;53.206;13.316;2023-10-13T12:05:31;10.37;;;5.70;;
10659;SDS011;5378;53.206;13.316;2023-10-13T12:08:34;23.03;;;6.10;;
10659;SDS011;5378;53.206;13.316;2023-10-13T12:11:24;7.53;;;4.90;;
10659;SDS011;5378;53.206;13.316;2023-10-13T12:14:18;16.50;;;5.23;;
10659;SDS011;5378;53.206;13.316;2023-10-13T12:17:07;9.07;;;6.03;;
10659;SDS011;5378;53.206;13.316;2023-10-13T12:19:57;20.87;;;5.47;;
10659;SDS011;5378;53.206;13.316;2023-10-13T12:22:45;13.60;;;4.90;;
10659;SDS011;5378;53.206;13.316;2023-10-13T12:25:40;12.10;;;6.20;;
10659;SDS011;5378;53.206;13.316;2023-10-13T12:28:44;17.13;;;6.23;;
10659;SDS011;5378;53.206;13.316;2023-10-13T12:31:38;7.37;;;5.03;;
10659;SDS011;5378;53.206;13.316;2023-10-13T12:34:36;10.03;;;4.60;;
10659;SDS011;5378;53.206;13.316;2023-10-13T12:37:43;7.43;;;4.90;;
10659;SDS011;5378;53.206;13.316;2023-10-13T12:40:36;8.60;;;5.30;;
10659;SDS011;5378;53.206;13.316;2023-10-13T12:43:41;7.80;;;5.00;;
10659;SDS011;5378;53.206;13.316;2023-10-13T12:46:46;10.83;;;4.20;;
10659;SDS011;5378;53.206;13.316;2023-10-13T12:49:51;8.20;;;5.03;;
10659;SDS011;5378;53.206;13.316;2023-10-13T12:52:44;11.70;;;4.93;;
10659;SDS011;5378;53.206;13.316;2023-10-13T12:55:31;12.47;;;4.70;;
10659;SDS011;5378;53.206;13.316;2023-10-13T12:58:18;7.57;;;4.53;;
10659;SDS011;5378;53.206;13.316;2023-10-13T13:01:12;9.33;;;4.93;;
10659;SDS011;5378;53.206;13.316;2023-10-13T13:04:01;8.33;;;4.70;;
10659;SDS011;5378;53.206;13.316;2023-10-13T13:06:50;13.67;;;4.83;;
10659;SDS011;5378;53.206;13.316;2023-10-13T13:09:39;9.03;;;4.70;;
10659;SDS011;5378;53.206;13.316;2023-10-13T13:12:26;15.10;;;4.83;;
10659;SDS011;5378;53.206;13.316;2023-10-13T13:15:14;9.40;;;5.37;;
10659;SDS011;5378;53.206;13.316;2023-10-13T13:18:01;8.73;;;4.27;;
10659;SDS011;5378;53.206;13.316;2023-10-13T13:20:58;6.97;;;4.23;;
10659;SDS011;5378;53.206;13.316;2023-10-13T13:23:47;8.63;;;4.27;;
10659;SDS011;5378;53.206;13.316;2023-10-13T13:26:35;7.23;;;5.00;;
10659;SDS011;5378;53.206;13.316;2023-10-13T13:29:22;11.93;;;5.33;;
10659;SDS011;5378;53.206;13.316;2023-10-13T13:32:11;7.03;;;4.50;;
10659;SDS011;5378;53.206;13.316;2023-10-13T13:35:09;8.23;;;4.13;;
10659;SDS011;5378;53.206;13.316;2023-10-13T13:38:00;13.03;;;4.63;;
10659;SDS011;5378;53.206;13.316;2023-10-13T13:40:55;13.37;;;5.10;;
10659;SDS011;5378;53.206;13.316;2023-10-13T13:43:42;8.13;;;4.70;;
10659;SDS011;5378;53.206;13.316;2023-10-13T13:46:40;7.33;;;4.57;;
10659;SDS011;5378;53.206;13.316;2023-10-13T13:49:29;7.80;;;4.40;;
10659;SDS011;5378;53.206;13.316;2023-10-13T13:52:25;10.60;;;5.00;;
10659;SDS011;5378;53.206;13.316;2023-10-13T13:55:20;13.93;;;5.70;;
10659;SDS011;5378;53.206;13.316;2023-10-13T13:58:08;10.63;;;4.83;;
10659;SDS011;5378;53.206;13.316;2023-10-13T14:00:59;7.67;;;4.00;;
10659;SDS011;5378;53.206;13.316;2023-10-13T14:03:57;16.47;;;5.67;;
10659;SDS011;5378;53.206;13.316;2023-10-13T14:06:48;14.07;;;4.23;;
10659;SDS011;5378;53.206;13.316;2023-10-13T14:09:36;11.33;;;4.50;;
10659;SDS011;5378;53.206;13.316;2023-10-13T14:12:27;15.10;;;5.23;;
10659;SDS011;5378;53.206;13.316;2023-10-13T14:15:27;9.00;;;5.70;;
10659;SDS011;5378;53.206;13.316;2023-10-13T14:18:14;9.80;;;5.40;;
10659;SDS011;5378;53.206;13.316;2023-10-13T14:21:02;16.43;;;5.27;;
10659;SDS011;5378;53.206;13.316;2023-10-13T14:23:50;10.33;;;5.23;;
10659;SDS011;5378;53.206;13.316;2023-10-13T14:26:39;11.23;;;4.87;;
10659;SDS011;5378;53.206;13.316;2023-10-13T14:29:29;7.70;;;4.87;;
10659;SDS011;5378;53.206;13.316;2023-10-13T14:32:16;7.50;;;4.53;;
10659;SDS011;5378;53.206;13.316;2023-10-13T14:35:03;17.33;;;5.30;;
10659;SDS011;5378;53.206;13.316;2023-10-13T14:37:59;10.10;;;5.03;;
10659;SDS011;5378;53.206;13.316;2023-10-13T14:40:46;10.77;;;6.00;;
10659;SDS011;5378;53.206;13.316;2023-10-13T14:43:34;12.30;;;5.50;;
10659;SDS011;5378;53.206;13.316;2023-10-13T14:46:23;12.97;;;5.67;;
10659;SDS011;5378;53.206;13.316;2023-10-13T14:49:10;10.50;;;4.87;;
10659;SDS011;5378;53.206;13.316;2023-10-13T14:51:59;17.13;;;5.87;;
10659;SDS011;5378;53.206;13.316;2023-10-13T14:54:47;11.03;;;5.90;;
10659;SDS011;5378;53.206;13.316;2023-10-13T14:57:40;14.43;;;5.30;;
10659;SDS011;5378;53.206;13.316;2023-10-13T15:00:27;12.40;;;5.27;;
10659;SDS011;5378;53.206;13.316;2023-10-13T15:03:18;13.13;;;5.87;;
10659;SDS011;5378;53.206;13.316;2023-10-13T15:06:07;8.60;;;5.67;;
10659;SDS011;5378;53.206;13.316;2023-10-13T15:08:54;11.83;;;4.97;;
10659;SDS011;5378;53.206;13.316;2023-10-13T15:11:43;11.60;;;5.30;;
10659;SDS011;5378;53.206;13.316;2023-10-13T15:14:34;10.73;;;5.80;;
10659;SDS011;5378;53.206;13.316;2023-10-13T15:17:22;13.33;;;5.63;;
10659;SDS011;5378;53.206;13.316;2023-10-13T15:20:11;20.10;;;5.97;;
10659;SDS011;5378;53.206;13.316;2023-10-13T15:23:02;11.53;;;6.30;;
10659;SDS011;5378;53.206;13.316;2023-10-13T15:25:51;12.43;;;5.80;;
10659;SDS011;5378;53.206;13.316;2023-10-13T15:28:39;15.03;;;5.83;;
10659;SDS011;5378;53.206;13.316;2023-10-13T15:31:34;10.10;;;5.47;;
10659;SDS011;5378;53.206;13.316;2023-10-13T15:34:26;10.00;;;4.80;;
10659;SDS011;5378;53.206;13.316;2023-10-13T15:37:15;14.27;;;4.87;;
10659;SDS011;5378;53.206;13.316;2023-10-13T15:40:03;20.83;;;5.80;;
10659;SDS011;5378;53.206;13.316;2023-10-13T15:42:50;13.90;;;4.97;;
10659;SDS011;5378;53.206;13.316;2023-10-13T15:45:41;11.93;;;5.40;;
10659;SDS011;5378;53.206;13.316;2023-10-13T15:48:28;11.93;;;6.07;;
10659;SDS011;5378;53.206;13.316;2023-10-13T15:51:16;10.80;;;5.47;;
10659;SDS011;5378;53.206;13.316;2023-10-13T15:54:04;10.83;;;5.43;;
10659;SDS011;5378;53.206;13.316;2023-10-13T15:56:58;22.53;;;5.97;;
10659;SDS011;5378;53.206;13.316;2023-10-13T15:59:45;20.23;;;5.60;;
10659;SDS011;5378;53.206;13.316;2023-10-13T16:02:33;13.27;;;5.30;;
10659;SDS011;5378;53.206;13.316;2023-10-13T16:05:20;23.60;;;6.63;;
10659;SDS011;5378;53.206;13.316;2023-10-13T16:08:08;8.87;;;5.23;;
10659;SDS011;5378;53.206;13.316;2023-10-13T16:11:04;11.43;;;5.97;;
10659;SDS011;5378;53.206;13.316;2023-10-13T16:13:53;12.67;;;5.50;;
10659;SDS011;5378;53.206;13.316;2023-10-13T16:16:41;24.23;;;5.83;;
10659;SDS011;5378;53.206;13.316;2023-10-13T16:19:32;7.90;;;4.37;;
10659;SDS011;5378;53.206;13.316;2023-10-13T16:22:21;22.43;;;7.10;;
10659;SDS011;5378;53.206;13.316;2023-10-13T16:25:08;9.93;;;5.17;;
10659;SDS011;5378;53.206;13.316;2023-10-13T16:28:03;10.97;;;4.83;;
10659;SDS011;5378;53.206;13.316;2023-10-13T16:30:51;15.00;;;6.47;;
10659;SDS011;5378;53.206;13.316;2023-10-13T16:33:40;16.50;;;6.13;;
10659;SDS011;5378;53.206;13.316;2023-10-13T16:36:27;15.10;;;5.07;;
10659;SDS011;5378;53.206;13.316;2023-10-13T16:39:16;15.70;;;5.70;;
10659;SDS011;5378;53.206;13.316;2023-10-13T16:42:07;10.83;;;4.50;;
10659;SDS011;5378;53.206;13.316;2023-10-13T16:44:56;13.57;;;5.20;;
10659;SDS011;5378;53.206;13.316;2023-10-13T16:47:44;12.87;;;5.00;;
10659;SDS011;5378;53.206;13.316;2023-10-13T16:50:31;12.27;;;5.00;;
10659;SDS011;5378;53.206;13.316;2023-10-13T16:53:23;14.03;;;5.10;;
10659;SDS011;5378;53.206;13.316;2023-10-13T16:56:10;10.97;;;5.37;;
10659;SDS011;5378;53.206;13.316;2023-10-13T16:58:58;8.00;;;5.17;;
10659;SDS011;5378;53.206;13.316;2023-10-13T17:01:47;12.10;;;5.17;;
10659;SDS011;5378;53.206;13.316;2023-10-13T17:04:34;9.77;;;5.07;;
10659;SDS011;5378;53.206;13.316;2023-10-13T17:07:21;18.03;;;5.40;;
10659;SDS011;5378;53.206;13.316;2023-10-13T17:10:08;10.83;;;5.17;;